Time;durP1;ratioP1;P1;durP2;ratioP2;P2;SDS_P1;SDS_P2;PMS_P1;PMS_P2;Temp;Humidity;BMP_temperature;BMP_pressure;BME280_temperature;BME280_humidity;BME280_pressure;Samples;Min_cycle;Max_cycle;Signal;HPM_P1;HPM_P2
2022/01/13 00:01:44;;;;;;;53.93;17.83;;;5.50;99.90;;;;;;5023303;28;20228;-46
2022/01/13 00:04:12;;;;;;;50.17;17.60;;;5.50;99.90;;;;;;5041512;28;20216;-47
2022/01/13 00:06:40;;;;;;;45.53;16.13;;;5.50;99.90;;;;;;5030507;28;20214;-47
2022/01/13 00:09:09;;;;;;;61.70;18.83;;;5.50;99.90;;;;;;5043413;28;20205;-47
2022/01/13 00:11:36;;;;;;;57.43;18.50;;;5.50;99.90;;;;;;5038380;28;20244;-46
2022/01/13 00:17:09;;;;;;;52.17;17.90;;;5.60;99.90;;;;;;5023803;28;20292;-46
2022/01/13 00:19:48;;;;;;;47.07;17.20;;;5.60;99.90;;;;;;5043001;28;20274;-47
2022/01/13 00:22:20;;;;;;;49.37;18.73;;;5.50;99.90;;;;;;5034604;28;20786;-47
2022/01/13 00:24:52;;;;;;;52.17;18.57;;;5.50;99.90;;;;;;5034050;28;20227;-46
2022/01/13 00:27:22;;;;;;;46.07;17.57;;;5.60;99.90;;;;;;5032296;28;20277;-46
2022/01/13 00:29:49;;;;;;;50.00;16.97;;;5.50;99.90;;;;;;5046922;28;20259;-46
2022/01/13 00:32:17;;;;;;;64.53;17.60;;;5.60;99.90;;;;;;5012763;28;20236;-46
2022/01/13 00:34:45;;;;;;;55.97;17.17;;;5.60;99.90;;;;;;5032269;28;20726;-46
2022/01/13 00:37:12;;;;;;;60.30;18.13;;;5.50;99.90;;;;;;5027089;28;20200;-46
2022/01/13 00:39:39;;;;;;;54.40;18.33;;;5.60;99.90;;;;;;5036888;28;20667;-47
2022/01/13 00:42:08;;;;;;;48.83;17.67;;;5.50;99.90;;;;;;5035919;28;20231;-46
2022/01/13 00:44:37;;;;;;;46.43;17.27;;;5.60;99.90;;;;;;5032813;28;20216;-46
2022/01/13 00:47:07;;;;;;;50.50;16.13;;;5.60;99.90;;;;;;5035186;28;20205;-46
2022/01/13 00:49:34;;;;;;;42.30;16.17;;;5.60;99.90;;;;;;5027233;28;20221;-46
2022/01/13 00:52:01;;;;;;;41.20;15.60;;;5.60;99.90;;;;;;5015499;28;20229;-46
2022/01/13 00:54:28;;;;;;;44.87;16.70;;;5.60;99.90;;;;;;5024746;28;20213;-46
2022/01/13 00:56:55;;;;;;;41.97;16.37;;;5.60;99.90;;;;;;5022124;28;20215;-46
2022/01/13 00:59:23;;;;;;;50.07;16.40;;;5.60;99.90;;;;;;5044758;28;21346;-46
2022/01/13 01:01:52;;;;;;;49.13;16.80;;;5.60;99.90;;;;;;5035832;28;20340;-47
2022/01/13 01:04:19;;;;;;;49.40;16.80;;;5.60;99.90;;;;;;5022257;28;20312;-48
2022/01/13 01:06:47;;;;;;;51.83;16.83;;;5.60;99.90;;;;;;5029147;28;20221;-46
2022/01/13 01:09:18;;;;;;;44.87;17.03;;;5.70;99.90;;;;;;5037377;28;20219;-47
2022/01/13 01:11:47;;;;;;;37.63;15.87;;;5.70;99.90;;;;;;5026191;28;20235;-47
2022/01/13 01:14:17;;;;;;;44.43;15.33;;;5.70;99.90;;;;;;5032307;28;20204;-46
2022/01/13 01:16:45;;;;;;;42.77;16.17;;;5.70;99.90;;;;;;5025098;28;20205;-47
2022/01/13 01:19:14;;;;;;;48.53;16.30;;;5.70;99.90;;;;;;5030517;28;20216;-46
2022/01/13 01:24:53;;;;;;;50.87;15.17;;;5.70;99.90;;;;;;4985125;28;20291;-46
2022/01/13 01:27:20;;;;;;;48.00;16.53;;;5.70;99.90;;;;;;5024987;28;20216;-46
2022/01/13 01:29:54;;;;;;;41.80;15.37;;;5.70;99.90;;;;;;5018284;28;22396;-46
2022/01/13 01:32:23;;;;;;;51.17;17.37;;;5.70;99.90;;;;;;5045844;28;20234;-45
2022/01/13 01:34:58;;;;;;;53.93;17.23;;;5.70;99.90;;;;;;5023400;28;20874;-46
2022/01/13 01:37:28;;;;;;;48.13;17.37;;;5.70;99.90;;;;;;5033766;28;20211;-46
2022/01/13 01:39:57;;;;;;;51.53;15.63;;;5.70;99.90;;;;;;5034319;28;21292;-46
2022/01/13 01:42:26;;;;;;;51.80;17.13;;;5.70;99.90;;;;;;5017414;28;20232;-46
2022/01/13 01:44:57;;;;;;;52.30;17.13;;;5.70;99.90;;;;;;5027886;28;20219;-47
2022/01/13 01:47:28;;;;;;;52.83;17.43;;;5.70;99.90;;;;;;5031609;28;21033;-45
2022/01/13 01:49:58;;;;;;;61.13;19.47;;;5.70;99.90;;;;;;5024996;28;20335;-46
2022/01/13 01:52:26;;;;;;;60.57;19.73;;;5.70;99.90;;;;;;5027813;28;20224;-46
2022/01/13 01:54:54;;;;;;;61.87;19.70;;;5.60;99.90;;;;;;5029859;28;21015;-46
2022/01/13 01:57:22;;;;;;;47.90;18.77;;;5.70;99.90;;;;;;5030278;28;20205;-46
2022/01/13 01:59:49;;;;;;;65.17;19.57;;;5.60;99.90;;;;;;5038259;28;20212;-46
2022/01/13 02:02:17;;;;;;;53.03;18.27;;;5.60;99.90;;;;;;5017368;28;20224;-48
2022/01/13 02:04:45;;;;;;;59.10;20.70;;;5.60;99.90;;;;;;5030305;28;20302;-46
2022/01/13 02:07:14;;;;;;;58.83;20.00;;;5.60;99.90;;;;;;5015882;28;20245;-46
2022/01/13 02:09:43;;;;;;;64.90;19.97;;;5.60;99.90;;;;;;5032445;28;20205;-46
2022/01/13 02:12:16;;;;;;;51.23;17.57;;;5.60;99.90;;;;;;5033042;28;20247;-46
2022/01/13 02:14:56;;;;;;;49.37;18.20;;;5.60;99.90;;;;;;5018646;28;20451;-46
2022/01/13 02:17:27;;;;;;;56.63;17.50;;;5.60;99.90;;;;;;5037213;28;20193;-46
2022/01/13 02:19:57;;;;;;;56.93;18.87;;;5.60;99.90;;;;;;5025201;28;20296;-46
2022/01/13 02:22:26;;;;;;;57.10;18.67;;;5.60;99.90;;;;;;5022810;28;20237;-46
2022/01/13 02:24:53;;;;;;;46.03;15.43;;;5.60;99.90;;;;;;5029631;28;20212;-46
2022/01/13 02:27:21;;;;;;;54.43;16.73;;;5.60;99.90;;;;;;5026793;28;20211;-46
2022/01/13 02:29:48;;;;;;;50.43;17.20;;;5.70;99.90;;;;;;5033120;28;20208;-46
2022/01/13 02:32:15;;;;;;;46.53;16.97;;;5.70;99.90;;;;;;5022715;28;20236;-46
2022/01/13 02:34:42;;;;;;;53.83;17.50;;;5.70;99.90;;;;;;5038534;28;20667;-46
2022/01/13 02:37:09;;;;;;;47.53;16.73;;;5.70;99.90;;;;;;5022949;28;20402;-46
2022/01/13 02:39:38;;;;;;;49.53;16.17;;;5.70;99.90;;;;;;5023711;28;20200;-46
2022/01/13 02:42:11;;;;;;;44.70;16.07;;;5.70;99.90;;;;;;5031885;28;20217;-46
2022/01/13 02:44:47;;;;;;;49.87;15.53;;;5.80;99.90;;;;;;5013122;28;20413;-47
2022/01/13 02:47:33;;;;;;;39.67;14.57;;;5.70;99.90;;;;;;5035925;28;20562;-46
2022/01/13 02:50:00;;;;;;;54.57;15.33;;;5.80;99.90;;;;;;5032840;28;20709;-46
2022/01/13 02:52:27;;;;;;;41.67;14.63;;;5.70;99.90;;;;;;5020175;28;20228;-46
2022/01/13 02:54:56;;;;;;;47.90;14.77;;;5.70;99.90;;;;;;5009112;28;20309;-48
2022/01/13 02:57:23;;;;;;;52.13;15.60;;;5.70;99.90;;;;;;5039356;28;20229;-46
2022/01/13 02:59:50;;;;;;;49.47;15.93;;;5.70;99.90;;;;;;5014822;28;20224;-46
2022/01/13 03:02:17;;;;;;;44.37;15.83;;;5.80;99.90;;;;;;5018648;28;20787;-46
2022/01/13 03:04:47;;;;;;;48.93;14.77;;;5.80;99.90;;;;;;5042221;28;20212;-46
2022/01/13 03:07:13;;;;;;;33.00;13.77;;;5.80;99.90;;;;;;5033287;28;20503;-46
2022/01/13 03:09:41;;;;;;;47.13;14.60;;;5.80;99.90;;;;;;5015077;28;20216;-46
2022/01/13 03:12:11;;;;;;;43.80;15.03;;;5.80;99.90;;;;;;5025850;28;20400;-46
2022/01/13 03:14:37;;;;;;;48.17;15.37;;;5.80;99.90;;;;;;5022294;28;20239;-47
2022/01/13 03:17:04;;;;;;;49.17;15.13;;;5.80;99.90;;;;;;5012349;28;20605;-46
2022/01/13 03:19:31;;;;;;;55.60;16.57;;;5.80;99.90;;;;;;5038728;28;20992;-46
2022/01/13 03:21:59;;;;;;;40.93;15.33;;;5.80;99.90;;;;;;5035339;28;20220;-46
2022/01/13 03:24:26;;;;;;;50.07;15.33;;;5.80;99.90;;;;;;5014409;28;20224;-46
2022/01/13 03:26:55;;;;;;;48.47;16.27;;;5.80;99.90;;;;;;5031937;28;20220;-46
2022/01/13 03:29:24;;;;;;;49.47;14.83;;;5.80;99.90;;;;;;5018434;28;20208;-46
2022/01/13 03:31:51;;;;;;;42.70;14.37;;;5.80;99.90;;;;;;5021328;28;20327;-46
2022/01/13 03:34:18;;;;;;;50.00;15.57;;;5.80;99.90;;;;;;5025710;28;20718;-46
2022/01/13 03:36:46;;;;;;;52.13;15.20;;;5.80;99.90;;;;;;5041878;28;20197;-46
2022/01/13 03:39:13;;;;;;;48.23;16.50;;;5.80;99.90;;;;;;5016028;28;20219;-46
2022/01/13 03:41:40;;;;;;;49.73;15.60;;;5.80;99.90;;;;;;5029190;28;20231;-46
2022/01/13 03:44:16;;;;;;;50.00;16.90;;;5.80;99.90;;;;;;5020483;28;20304;-46
2022/01/13 03:46:45;;;;;;;49.10;14.53;;;5.80;99.90;;;;;;5016187;28;20472;-46
2022/01/13 03:49:12;;;;;;;51.97;15.97;;;5.80;99.90;;;;;;5040350;28;20235;-46
2022/01/13 03:52:33;;;;;;;52.93;15.23;;;5.80;99.90;;;;;;5016305;28;20453;-47
2022/01/13 03:55:38;;;;;;;47.83;15.40;;;5.80;99.90;;;;;;5011198;28;20220;-46
2022/01/13 03:58:54;;;;;;;46.47;13.97;;;5.80;99.90;;;;;;5027672;28;20240;-46
2022/01/13 04:02:03;;;;;;;43.23;14.43;;;5.80;99.90;;;;;;5026893;28;20205;-46
2022/01/13 04:04:31;;;;;;;51.40;15.80;;;5.80;99.90;;;;;;5015104;28;20208;-46
2022/01/13 04:07:16;;;;;;;50.80;15.13;;;5.80;99.90;;;;;;5038703;28;20252;-46
2022/01/13 04:10:26;;;;;;;46.97;15.27;;;5.70;99.90;;;;;;5030395;28;20213;-46
2022/01/13 04:12:53;;;;;;;44.80;14.27;;;5.80;99.90;;;;;;5036770;28;20234;-46
2022/01/13 04:15:21;;;;;;;40.83;12.43;;;5.80;99.90;;;;;;5006930;28;20217;-46
2022/01/13 04:17:50;;;;;;;43.07;13.10;;;5.80;99.90;;;;;;5024977;28;20704;-46
2022/01/13 04:20:17;;;;;;;52.03;14.83;;;5.80;99.90;;;;;;5028054;28;20219;-48
2022/01/13 04:22:45;;;;;;;42.37;14.17;;;5.80;99.90;;;;;;5028808;28;20885;-46
2022/01/13 04:25:12;;;;;;;42.43;13.57;;;5.80;99.90;;;;;;5014502;28;20294;-46
2022/01/13 04:27:43;;;;;;;42.87;13.53;;;5.80;99.90;;;;;;5018274;28;20228;-46
2022/01/13 04:32:56;;;;;;;39.13;14.33;;;5.80;99.90;;;;;;5019204;28;20270;-46
2022/01/13 04:35:23;;;;;;;39.27;14.10;;;5.80;99.90;;;;;;5012398;28;20412;-46
2022/01/13 04:37:50;;;;;;;51.23;15.33;;;5.80;99.90;;;;;;5034666;28;20316;-46
2022/01/13 04:40:17;;;;;;;51.60;16.73;;;5.80;99.90;;;;;;5033425;28;20213;-46
2022/01/13 04:42:45;;;;;;;44.47;16.37;;;5.80;99.90;;;;;;5018573;28;20234;-46
2022/01/13 04:45:12;;;;;;;60.27;16.00;;;5.80;99.90;;;;;;5023833;28;20221;-46
2022/01/13 04:47:39;;;;;;;43.60;14.47;;;5.80;99.90;;;;;;5020272;28;20221;-47
2022/01/13 04:50:09;;;;;;;49.97;15.70;;;5.80;99.90;;;;;;5021324;28;20208;-46
2022/01/13 04:52:36;;;;;;;39.27;14.87;;;5.70;99.90;;;;;;5041649;28;20242;-46
2022/01/13 04:55:09;;;;;;;49.53;16.30;;;5.70;99.90;;;;;;5023313;28;20212;-48
2022/01/13 04:57:36;;;;;;;49.80;15.87;;;5.70;99.90;;;;;;5011269;28;20223;-46
2022/01/13 05:00:04;;;;;;;44.97;14.93;;;5.70;99.90;;;;;;5019898;28;20247;-48
2022/01/13 05:02:32;;;;;;;52.93;15.80;;;5.70;99.90;;;;;;4995762;28;20233;-46
2022/01/13 05:05:00;;;;;;;36.37;15.20;;;5.70;99.90;;;;;;5004512;28;20210;-46
2022/01/13 05:07:29;;;;;;;52.93;16.57;;;5.70;99.90;;;;;;5026240;28;20280;-47
2022/01/13 05:09:57;;;;;;;39.57;14.83;;;5.80;99.90;;;;;;5028892;28;20221;-46
2022/01/13 05:12:29;;;;;;;48.33;15.80;;;5.70;99.90;;;;;;5028088;28;20231;-46
2022/01/13 05:15:02;;;;;;;50.40;16.20;;;5.70;99.90;;;;;;5044248;28;20206;-46
2022/01/13 05:17:58;;;;;;;44.83;15.30;;;5.70;99.90;;;;;;5028073;28;20209;-46
2022/01/13 05:20:28;;;;;;;47.93;15.37;;;5.70;99.90;;;;;;5048246;28;20209;-47
2022/01/13 05:22:56;;;;;;;43.60;14.60;;;5.70;99.90;;;;;;5022161;28;20325;-46
2022/01/13 05:25:23;;;;;;;42.70;15.63;;;5.70;99.90;;;;;;5052613;28;20204;-47
2022/01/13 05:27:50;;;;;;;40.87;14.97;;;5.70;99.90;;;;;;5005873;28;20217;-47
2022/01/13 05:30:19;;;;;;;49.47;14.33;;;5.70;99.90;;;;;;5021814;28;20216;-46
2022/01/13 05:32:47;;;;;;;51.37;14.67;;;5.80;99.90;;;;;;5005820;28;20309;-46
2022/01/13 05:35:15;;;;;;;45.30;15.20;;;5.80;99.90;;;;;;5024104;28;20464;-47
2022/01/13 05:37:43;;;;;;;37.77;14.23;;;5.80;99.90;;;;;;5010219;28;20691;-46
2022/01/13 05:40:13;;;;;;;47.37;16.40;;;5.80;99.90;;;;;;5019517;28;20325;-46
2022/01/13 05:42:40;;;;;;;42.53;14.37;;;5.70;99.90;;;;;;5011364;28;20229;-46
2022/01/13 05:45:14;;;;;;;39.53;14.20;;;5.80;99.90;;;;;;5021610;28;20207;-47
2022/01/13 05:47:42;;;;;;;46.20;14.57;;;5.80;99.90;;;;;;5012905;28;21003;-46
2022/01/13 05:50:10;;;;;;;38.30;13.83;;;5.80;99.90;;;;;;4995850;28;20210;-46
2022/01/13 05:52:37;;;;;;;39.40;14.30;;;5.80;99.90;;;;;;5000927;28;20228;-47
2022/01/13 05:55:04;;;;;;;33.80;13.53;;;5.80;99.90;;;;;;5022266;28;20211;-46
2022/01/13 05:57:33;;;;;;;32.43;13.33;;;5.80;99.90;;;;;;5011153;28;20650;-46
2022/01/13 06:00:00;;;;;;;34.93;14.00;;;5.80;99.90;;;;;;5037425;28;20208;-46
2022/01/13 06:02:26;;;;;;;32.53;13.63;;;5.80;99.90;;;;;;5015758;28;20637;-46
2022/01/13 06:04:53;;;;;;;36.47;13.40;;;5.80;99.90;;;;;;5017817;28;20679;-46
2022/01/13 06:07:20;;;;;;;33.50;13.27;;;5.80;99.90;;;;;;5004649;28;20757;-46
2022/01/13 06:09:47;;;;;;;42.27;15.03;;;5.80;99.90;;;;;;4987415;28;20224;-47
2022/01/13 06:12:16;;;;;;;31.13;13.50;;;5.80;99.90;;;;;;5037026;28;20224;-47
2022/01/13 06:14:44;;;;;;;37.03;14.30;;;5.80;99.90;;;;;;5020254;28;21125;-46
2022/01/13 06:17:12;;;;;;;36.47;13.97;;;5.80;99.90;;;;;;5005424;28;22024;-46
2022/01/13 06:19:39;;;;;;;36.20;13.27;;;5.80;99.90;;;;;;5029140;28;20232;-47
2022/01/13 06:22:07;;;;;;;32.60;13.57;;;5.80;99.90;;;;;;5028660;28;20223;-46
2022/01/13 06:24:34;;;;;;;33.83;13.10;;;5.80;99.90;;;;;;5028402;28;20227;-46
2022/01/13 06:27:01;;;;;;;30.83;12.47;;;5.80;99.90;;;;;;5047695;28;20899;-47
2022/01/13 06:29:28;;;;;;;36.20;12.90;;;5.80;99.90;;;;;;5028952;28;20201;-46
2022/01/13 06:31:56;;;;;;;33.77;13.03;;;5.80;99.90;;;;;;5014620;28;20256;-48
2022/01/13 06:34:24;;;;;;;36.30;13.47;;;5.80;99.90;;;;;;5045205;28;20270;-46
2022/01/13 06:36:50;;;;;;;28.37;11.60;;;5.80;99.90;;;;;;5009589;28;20212;-46
2022/01/13 06:39:17;;;;;;;34.33;13.73;;;6.00;99.90;;;;;;5020202;28;20211;-47
2022/01/13 06:41:44;;;;;;;36.57;13.67;;;5.90;99.90;;;;;;5033826;28;20230;-46
2022/01/13 06:44:11;;;;;;;38.40;14.63;;;5.90;99.90;;;;;;5028445;28;20213;-46
2022/01/13 06:46:38;;;;;;;41.20;14.57;;;5.90;99.90;;;;;;5033017;28;20224;-47
2022/01/13 06:49:06;;;;;;;38.87;13.90;;;5.90;99.90;;;;;;5041842;28;20215;-46
2022/01/13 06:51:33;;;;;;;34.07;13.63;;;5.80;99.90;;;;;;5024248;28;20224;-47
2022/01/13 06:54:00;;;;;;;42.30;14.63;;;5.80;99.90;;;;;;5037473;28;20255;-47
2022/01/13 06:56:27;;;;;;;38.97;15.07;;;5.90;99.90;;;;;;5021033;28;20235;-46
2022/01/13 06:58:55;;;;;;;33.77;13.93;;;5.80;99.90;;;;;;5048995;28;20211;-46
2022/01/13 07:01:23;;;;;;;38.77;14.93;;;5.80;99.90;;;;;;4997150;28;20216;-48
2022/01/13 07:03:50;;;;;;;43.57;15.80;;;5.90;99.90;;;;;;5039366;28;20694;-46
2022/01/13 07:06:19;;;;;;;33.50;14.70;;;5.90;99.90;;;;;;5039733;28;20674;-46
2022/01/13 07:08:46;;;;;;;42.57;14.27;;;5.80;99.90;;;;;;5034373;28;20715;-46
2022/01/13 07:11:13;;;;;;;35.17;14.97;;;5.80;99.90;;;;;;5035928;28;20861;-46
2022/01/13 07:13:39;;;;;;;47.57;15.67;;;5.80;99.90;;;;;;5044111;28;20973;-46
2022/01/13 07:16:07;;;;;;;34.27;14.47;;;5.80;99.90;;;;;;5031104;28;20215;-47
2022/01/13 07:18:38;;;;;;;36.80;13.57;;;5.80;99.90;;;;;;5039834;28;20942;-46
2022/01/13 07:21:06;;;;;;;35.57;15.77;;;5.80;99.90;;;;;;5041640;28;20985;-46
2022/01/13 07:23:36;;;;;;;40.17;16.87;;;5.80;99.90;;;;;;5017940;28;20213;-46
2022/01/13 07:26:04;;;;;;;42.27;14.53;;;5.80;99.90;;;;;;5045967;28;20205;-46
2022/01/13 07:28:31;;;;;;;40.63;14.63;;;5.80;99.90;;;;;;5037030;28;20225;-46
2022/01/13 07:30:58;;;;;;;41.17;15.80;;;5.80;99.90;;;;;;5033470;28;20217;-46
2022/01/13 07:33:25;;;;;;;42.00;15.40;;;5.80;99.90;;;;;;5035636;28;20671;-46
2022/01/13 07:35:52;;;;;;;34.33;14.03;;;5.80;99.90;;;;;;5036361;28;20282;-46
2022/01/13 07:38:19;;;;;;;35.77;14.83;;;5.80;99.90;;;;;;5032307;28;20964;-47
2022/01/13 07:40:48;;;;;;;33.90;14.60;;;5.80;99.90;;;;;;5047972;28;20203;-46
2022/01/13 07:43:21;;;;;;;37.97;15.00;;;5.70;99.90;;;;;;5022208;28;20224;-46
2022/01/13 07:45:48;;;;;;;34.83;14.30;;;5.80;99.90;;;;;;5035884;28;20209;-46
2022/01/13 07:48:15;;;;;;;31.90;13.83;;;5.80;99.90;;;;;;5044424;28;20224;-46
2022/01/13 07:50:42;;;;;;;40.33;14.37;;;5.80;99.90;;;;;;5034301;28;20224;-47
2022/01/13 07:53:09;;;;;;;41.90;15.27;;;5.80;99.90;;;;;;5043907;28;20229;-46
2022/01/13 07:55:36;;;;;;;30.63;14.43;;;5.70;99.90;;;;;;5043885;28;20200;-46
2022/01/13 07:58:05;;;;;;;35.53;14.80;;;5.70;99.90;;;;;;5040185;28;20931;-46
2022/01/13 08:00:32;;;;;;;37.30;14.43;;;5.70;99.90;;;;;;5050926;28;20203;-46
2022/01/13 08:02:59;;;;;;;34.70;13.63;;;5.80;99.90;;;;;;5034757;28;20221;-46
2022/01/13 08:05:26;;;;;;;34.77;13.10;;;5.80;99.90;;;;;;5017188;28;20196;-46
2022/01/13 08:07:53;;;;;;;28.40;12.33;;;5.70;99.90;;;;;;5055092;28;20318;-46
2022/01/13 08:10:20;;;;;;;30.70;12.57;;;5.70;99.90;;;;;;5013793;28;21068;-49
2022/01/13 08:12:47;;;;;;;32.37;13.00;;;5.70;99.90;;;;;;5047637;28;20225;-47
2022/01/13 08:15:16;;;;;;;33.07;13.50;;;5.80;99.90;;;;;;5048194;28;21065;-46
2022/01/13 08:20:29;;;;;;;31.07;12.50;;;5.70;99.90;;;;;;5035659;28;20236;-46
2022/01/13 08:22:56;;;;;;;32.27;13.53;;;5.80;99.90;;;;;;5038586;28;20236;-46
2022/01/13 08:25:23;;;;;;;33.00;12.90;;;5.80;99.90;;;;;;5039055;28;20212;-46
2022/01/13 08:27:51;;;;;;;30.80;12.93;;;5.80;99.90;;;;;;5038654;28;20319;-46
2022/01/13 08:30:19;;;;;;;31.20;12.63;;;5.80;99.90;;;;;;5041138;28;20303;-47
2022/01/13 08:32:46;;;;;;;29.20;13.77;;;5.80;99.90;;;;;;5024258;28;20237;-47
2022/01/13 08:35:13;;;;;;;38.80;13.57;;;5.80;99.90;;;;;;5040829;28;20388;-46
2022/01/13 08:37:41;;;;;;;41.97;14.97;;;5.80;99.90;;;;;;5023910;28;20208;-46
2022/01/13 08:40:11;;;;;;;32.07;12.83;;;5.80;99.90;;;;;;5024389;28;20219;-46
2022/01/13 08:42:38;;;;;;;31.40;13.23;;;5.80;99.90;;;;;;5038287;28;20226;-46
2022/01/13 08:45:07;;;;;;;31.77;12.93;;;5.80;99.90;;;;;;5035668;28;20898;-46
2022/01/13 08:47:35;;;;;;;28.70;12.07;;;5.80;99.90;;;;;;5027973;28;20230;-46
2022/01/13 08:50:05;;;;;;;31.33;13.50;;;5.80;99.90;;;;;;5038685;28;20210;-47
2022/01/13 08:52:33;;;;;;;25.97;12.90;;;5.80;99.90;;;;;;5030449;28;20232;-46
2022/01/13 08:55:00;;;;;;;32.10;13.77;;;5.80;99.90;;;;;;5041431;28;20598;-46
2022/01/13 08:57:27;;;;;;;31.87;14.07;;;5.80;99.90;;;;;;5024087;28;20749;-47
2022/01/13 08:59:54;;;;;;;27.40;12.57;;;5.90;99.90;;;;;;5022120;28;20217;-46
2022/01/13 09:02:21;;;;;;;33.43;13.33;;;5.90;99.90;;;;;;5049454;28;22478;-47
2022/01/13 09:04:50;;;;;;;27.27;12.57;;;5.80;99.90;;;;;;5026365;28;20213;-46
2022/01/13 09:07:17;;;;;;;26.50;12.70;;;5.80;99.90;;;;;;5040298;28;20209;-46
2022/01/13 09:09:44;;;;;;;32.03;12.33;;;5.90;99.90;;;;;;5036518;28;20308;-46
2022/01/13 09:12:11;;;;;;;32.00;12.50;;;5.90;99.90;;;;;;5024659;28;20345;-46
2022/01/13 09:14:39;;;;;;;24.10;11.50;;;5.90;99.90;;;;;;5039056;28;20217;-51
2022/01/13 09:17:12;;;;;;;24.40;11.33;;;5.90;99.90;;;;;;5039683;28;20214;-46
2022/01/13 09:19:41;;;;;;;19.93;10.73;;;5.90;99.90;;;;;;5032634;28;20223;-46
2022/01/13 09:22:09;;;;;;;26.07;10.43;;;5.90;99.90;;;;;;5036967;28;20232;-46
2022/01/13 09:24:36;;;;;;;23.50;10.93;;;5.90;99.90;;;;;;5039559;28;20212;-47
2022/01/13 09:27:03;;;;;;;24.13;11.57;;;5.90;99.90;;;;;;5035862;28;24431;-46
2022/01/13 09:29:30;;;;;;;24.53;10.37;;;5.90;99.90;;;;;;5032765;28;20225;-47
2022/01/13 09:31:57;;;;;;;33.23;11.30;;;5.90;99.90;;;;;;5044148;28;20239;-47
2022/01/13 09:34:24;;;;;;;28.30;11.87;;;5.90;99.90;;;;;;5027067;28;20204;-46
2022/01/13 09:36:51;;;;;;;27.33;11.77;;;6.00;99.90;;;;;;5049617;28;20291;-47
2022/01/13 09:39:19;;;;;;;25.70;11.00;;;6.00;99.90;;;;;;5034307;28;20209;-46
2022/01/13 09:41:47;;;;;;;28.03;11.47;;;6.00;99.90;;;;;;5049599;28;20255;-46
2022/01/13 09:44:14;;;;;;;24.20;10.60;;;6.00;99.90;;;;;;5020457;28;20208;-46
2022/01/13 09:46:41;;;;;;;26.10;11.83;;;6.00;99.90;;;;;;5048163;28;20212;-46
2022/01/13 09:49:09;;;;;;;25.13;11.13;;;6.10;99.90;;;;;;5025042;28;20216;-47
2022/01/13 09:51:38;;;;;;;25.93;10.17;;;6.10;99.90;;;;;;5050031;28;20220;-46
2022/01/13 09:54:05;;;;;;;26.97;11.40;;;6.10;99.90;;;;;;5037341;28;20198;-47
2022/01/13 09:56:35;;;;;;;27.93;10.87;;;6.10;99.90;;;;;;5044416;28;20205;-46
2022/01/13 09:59:02;;;;;;;22.07;11.00;;;6.10;99.90;;;;;;5025777;28;20208;-47
2022/01/13 10:01:29;;;;;;;22.57;9.47;;;6.10;99.90;;;;;;5033621;28;20236;-46
2022/01/13 10:03:56;;;;;;;23.93;10.17;;;6.10;99.90;;;;;;5023964;28;20213;-46
2022/01/13 10:06:23;;;;;;;27.53;12.40;;;6.10;99.90;;;;;;5050008;28;20220;-46
2022/01/13 10:08:51;;;;;;;24.77;10.63;;;6.10;99.90;;;;;;5032342;28;20231;-46
2022/01/13 10:11:29;;;;;;;28.33;9.93;;;6.10;99.90;;;;;;5018712;28;20209;-46
2022/01/13 10:14:17;;;;;;;28.37;11.23;;;6.10;99.90;;;;;;5035912;28;20331;-46
2022/01/13 10:16:46;;;;;;;22.33;10.07;;;6.10;99.90;;;;;;5035853;28;20213;-49
2022/01/13 10:19:33;;;;;;;33.07;11.90;;;6.10;99.90;;;;;;5040671;28;20207;-47
2022/01/13 10:22:03;;;;;;;24.57;10.77;;;6.20;99.90;;;;;;5037204;28;21713;-46
2022/01/13 10:24:32;;;;;;;23.77;10.40;;;6.20;99.90;;;;;;5043346;28;20201;-46
2022/01/13 10:27:08;;;;;;;32.67;11.63;;;6.20;99.90;;;;;;5029990;28;20205;-46
2022/01/13 10:29:46;;;;;;;26.73;10.50;;;6.20;99.90;;;;;;5042160;28;20230;-46
2022/01/13 10:32:14;;;;;;;22.00;10.23;;;6.20;99.90;;;;;;5033486;28;20777;-46
2022/01/13 10:34:44;;;;;;;22.33;10.53;;;6.20;99.90;;;;;;5040121;28;20246;-46
2022/01/13 10:37:14;;;;;;;28.30;10.97;;;6.20;99.90;;;;;;5030283;28;20270;-46
2022/01/13 10:39:50;;;;;;;28.73;11.37;;;6.20;99.90;;;;;;5043580;28;20245;-47
2022/01/13 10:42:44;;;;;;;22.73;10.63;;;6.20;99.90;;;;;;5043688;28;20224;-47
2022/01/13 10:45:12;;;;;;;25.30;10.27;;;6.20;99.90;;;;;;5036232;28;20236;-46
2022/01/13 10:47:40;;;;;;;24.30;10.93;;;6.20;99.90;;;;;;5042145;28;20208;-46
2022/01/13 10:50:09;;;;;;;26.03;10.43;;;6.20;99.90;;;;;;5022612;28;20206;-46
2022/01/13 10:52:36;;;;;;;25.07;10.57;;;6.20;99.90;;;;;;5022385;28;20803;-46
2022/01/13 10:55:09;;;;;;;27.63;11.03;;;6.20;99.90;;;;;;5036578;28;20197;-46
2022/01/13 10:57:37;;;;;;;28.97;11.67;;;6.20;99.90;;;;;;5020552;28;20216;-46
2022/01/13 11:00:07;;;;;;;23.63;10.57;;;6.20;99.90;;;;;;5044893;28;20200;-46
2022/01/13 11:02:35;;;;;;;21.27;9.67;;;6.20;99.90;;;;;;5025582;28;20804;-46
2022/01/13 11:05:03;;;;;;;23.30;10.80;;;6.20;99.90;;;;;;5030998;28;20201;-46
2022/01/13 11:07:30;;;;;;;26.10;12.17;;;6.30;99.90;;;;;;5005090;28;20209;-46
2022/01/13 11:10:01;;;;;;;23.63;11.83;;;6.30;99.90;;;;;;5041204;28;20714;-47
2022/01/13 11:12:34;;;;;;;30.47;11.57;;;6.30;99.90;;;;;;5037212;28;20252;-47
2022/01/13 11:15:04;;;;;;;25.53;10.93;;;6.20;99.90;;;;;;5045807;28;20623;-46
2022/01/13 11:17:33;;;;;;;25.27;11.30;;;6.30;99.90;;;;;;5019844;28;20322;-46
2022/01/13 11:20:02;;;;;;;22.83;10.63;;;6.30;99.90;;;;;;5033067;28;20201;-46
2022/01/13 11:22:34;;;;;;;26.47;11.67;;;6.30;99.90;;;;;;5024185;28;20220;-46
2022/01/13 11:25:01;;;;;;;30.60;12.00;;;6.20;99.90;;;;;;5039499;28;20211;-47
2022/01/13 11:27:28;;;;;;;28.57;11.70;;;6.20;99.90;;;;;;5047322;28;20210;-47
2022/01/13 11:29:55;;;;;;;28.37;12.70;;;6.30;99.90;;;;;;5040417;28;20819;-46
2022/01/13 11:32:23;;;;;;;31.77;11.93;;;6.30;99.90;;;;;;5038650;28;20265;-46
2022/01/13 11:34:50;;;;;;;29.90;12.20;;;6.30;99.90;;;;;;5039023;28;20209;-46
2022/01/13 11:37:19;;;;;;;26.23;12.23;;;6.30;99.90;;;;;;5026570;28;20205;-46
2022/01/13 11:39:46;;;;;;;30.50;13.17;;;6.30;99.90;;;;;;5039691;28;20286;-46
2022/01/13 11:42:15;;;;;;;35.33;13.13;;;6.30;99.90;;;;;;5037794;28;20228;-46
2022/01/13 11:44:43;;;;;;;39.83;13.53;;;6.40;99.90;;;;;;5043552;28;20202;-47
2022/01/13 11:47:18;;;;;;;29.27;12.80;;;6.30;99.90;;;;;;5041681;28;20204;-47
2022/01/13 11:49:56;;;;;;;30.73;12.70;;;6.40;99.90;;;;;;5028002;28;20978;-47
2022/01/13 11:52:41;;;;;;;28.60;11.73;;;6.40;99.90;;;;;;5041993;28;20228;-46
2022/01/13 11:55:25;;;;;;;32.67;12.67;;;6.40;99.90;;;;;;5033934;28;20729;-47
2022/01/13 11:57:53;;;;;;;32.03;13.73;;;6.40;99.90;;;;;;5045379;28;20215;-46
2022/01/13 12:00:29;;;;;;;27.07;12.77;;;6.40;99.90;;;;;;5033093;28;20299;-46
2022/01/13 12:02:56;;;;;;;30.10;12.17;;;6.40;99.90;;;;;;5027754;28;20232;-46
2022/01/13 12:05:25;;;;;;;30.97;12.70;;;6.40;99.90;;;;;;5018218;28;20238;-46
2022/01/13 12:07:56;;;;;;;32.73;12.77;;;6.40;99.90;;;;;;5045105;28;20628;-47
2022/01/13 12:10:48;;;;;;;28.00;12.67;;;6.40;99.90;;;;;;5031035;28;20928;-46
2022/01/13 12:13:39;;;;;;;32.20;13.03;;;6.40;99.90;;;;;;5028531;28;20229;-47
2022/01/13 12:16:09;;;;;;;26.90;11.33;;;6.50;99.90;;;;;;5035295;28;20840;-48
2022/01/13 12:19:12;;;;;;;26.87;12.63;;;6.40;99.90;;;;;;5039776;28;20205;-47
2022/01/13 12:21:44;;;;;;;28.63;13.10;;;6.40;99.90;;;;;;5021824;28;20220;-46
2022/01/13 12:24:18;;;;;;;35.90;13.37;;;6.50;99.90;;;;;;5042219;28;20224;-46
2022/01/13 12:26:56;;;;;;;32.73;11.97;;;6.50;99.90;;;;;;5017568;28;20222;-46
2022/01/13 12:29:27;;;;;;;30.70;13.63;;;6.50;99.90;;;;;;5045532;28;20396;-47
2022/01/13 12:31:57;;;;;;;26.50;13.13;;;6.50;99.90;;;;;;5021014;28;20236;-46
2022/01/13 12:34:45;;;;;;;29.77;13.20;;;6.50;99.90;;;;;;5040356;28;20901;-46
2022/01/13 12:37:27;;;;;;;29.27;12.97;;;6.50;99.90;;;;;;5037624;28;20221;-46
2022/01/13 12:40:00;;;;;;;30.10;12.37;;;6.50;99.90;;;;;;5056258;28;20201;-47
2022/01/13 12:42:35;;;;;;;28.13;11.30;;;6.50;99.90;;;;;;5027395;28;20320;-46
2022/01/13 12:47:48;;;;;;;30.07;11.80;;;6.50;99.90;;;;;;5015227;28;20285;-47
2022/01/13 12:50:21;;;;;;;30.83;13.23;;;6.60;99.90;;;;;;5002692;28;20217;-46
2022/01/13 12:52:48;;;;;;;27.43;10.97;;;6.60;99.90;;;;;;5018621;28;20946;-47
2022/01/13 12:55:17;;;;;;;27.20;11.00;;;6.60;99.90;;;;;;5008205;28;20210;-47
2022/01/13 12:57:46;;;;;;;23.40;11.23;;;6.60;99.90;;;;;;5021431;28;20208;-46
2022/01/13 13:00:15;;;;;;;28.60;10.77;;;6.60;99.90;;;;;;5046807;28;20211;-47
2022/01/13 13:02:51;;;;;;;31.37;11.47;;;6.60;99.90;;;;;;5013718;28;20232;-46
2022/01/13 13:05:30;;;;;;;32.87;11.07;;;6.60;99.90;;;;;;5005142;28;20208;-46
2022/01/13 13:07:56;;;;;;;31.30;11.47;;;6.60;99.90;;;;;;5019114;28;20201;-46